sensor_id;sensor_type;location;lat;lon;timestamp;P1;durP1;ratioP1;P2;durP2;ratioP2
15812;SDS011;8007;51.404;6.304;2022-11-20T00:01:03;23.43;;;12.97;;
15812;SDS011;8007;51.404;6.304;2022-11-20T00:03:07;24.27;;;13.93;;
15812;SDS011;8007;51.404;6.304;2022-11-20T00:05:09;19.83;;;12.27;;
15812;SDS011;8007;51.404;6.304;2022-11-20T00:07:11;25.93;;;13.67;;
15812;SDS011;8007;51.404;6.304;2022-11-20T00:09:13;21.83;;;13.00;;
15812;SDS011;8007;51.404;6.304;2022-11-20T00:11:16;23.53;;;12.57;;
15812;SDS011;8007;51.404;6.304;2022-11-20T00:13:18;22.23;;;13.00;;
15812;SDS011;8007;51.404;6.304;2022-11-20T00:15:20;22.07;;;13.00;;
15812;SDS011;8007;51.404;6.304;2022-11-20T00:17:23;25.53;;;13.30;;
15812;SDS011;8007;51.404;6.304;2022-11-20T00:19:26;22.37;;;13.17;;
15812;SDS011;8007;51.404;6.304;2022-11-20T00:21:29;21.70;;;13.13;;
15812;SDS011;8007;51.404;6.304;2022-11-20T00:23:31;22.63;;;13.40;;
15812;SDS011;8007;51.404;6.304;2022-11-20T00:25:33;23.30;;;13.30;;
15812;SDS011;8007;51.404;6.304;2022-11-20T00:27:35;27.20;;;13.03;;
15812;SDS011;8007;51.404;6.304;2022-11-20T00:29:37;24.73;;;12.57;;
15812;SDS011;8007;51.404;6.304;2022-11-20T00:31:40;19.73;;;12.47;;
15812;SDS011;8007;51.404;6.304;2022-11-20T00:33:42;20.73;;;12.53;;
15812;SDS011;8007;51.404;6.304;2022-11-20T00:35:46;21.63;;;12.53;;
15812;SDS011;8007;51.404;6.304;2022-11-20T00:37:48;23.40;;;13.17;;
15812;SDS011;8007;51.404;6.304;2022-11-20T00:39:50;21.23;;;13.30;;
15812;SDS011;8007;51.404;6.304;2022-11-20T00:41:52;24.00;;;13.40;;
15812;SDS011;8007;51.404;6.304;2022-11-20T00:43:55;22.73;;;13.07;;
15812;SDS011;8007;51.404;6.304;2022-11-20T00:45:57;22.67;;;12.87;;
15812;SDS011;8007;51.404;6.304;2022-11-20T00:47:59;22.70;;;13.23;;
15812;SDS011;8007;51.404;6.304;2022-11-20T00:50:01;21.73;;;12.83;;
15812;SDS011;8007;51.404;6.304;2022-11-20T00:52:05;25.17;;;12.60;;
15812;SDS011;8007;51.404;6.304;2022-11-20T00:54:07;22.17;;;12.07;;
15812;SDS011;8007;51.404;6.304;2022-11-20T00:56:10;18.43;;;11.97;;
15812;SDS011;8007;51.404;6.304;2022-11-20T00:58:12;20.60;;;11.93;;
15812;SDS011;8007;51.404;6.304;2022-11-20T01:00:15;20.90;;;12.03;;
15812;SDS011;8007;51.404;6.304;2022-11-20T01:02:17;19.50;;;11.70;;
15812;SDS011;8007;51.404;6.304;2022-11-20T01:04:19;19.70;;;11.33;;
15812;SDS011;8007;51.404;6.304;2022-11-20T01:06:22;21.13;;;11.90;;
15812;SDS011;8007;51.404;6.304;2022-11-20T01:08:28;21.63;;;12.17;;
15812;SDS011;8007;51.404;6.304;2022-11-20T01:10:30;19.00;;;11.57;;
15812;SDS011;8007;51.404;6.304;2022-11-20T01:12:32;21.33;;;12.17;;
15812;SDS011;8007;51.404;6.304;2022-11-20T01:14:34;23.50;;;12.07;;
15812;SDS011;8007;51.404;6.304;2022-11-20T01:16:38;20.80;;;12.60;;
15812;SDS011;8007;51.404;6.304;2022-11-20T01:18:41;24.43;;;12.43;;
15812;SDS011;8007;51.404;6.304;2022-11-20T01:20:43;23.33;;;12.47;;
15812;SDS011;8007;51.404;6.304;2022-11-20T01:22:45;18.90;;;11.80;;
15812;SDS011;8007;51.404;6.304;2022-11-20T01:24:49;20.77;;;12.13;;
15812;SDS011;8007;51.404;6.304;2022-11-20T01:26:51;25.60;;;13.77;;
15812;SDS011;8007;51.404;6.304;2022-11-20T01:28:53;21.60;;;12.63;;
15812;SDS011;8007;51.404;6.304;2022-11-20T01:30:55;22.53;;;12.10;;
15812;SDS011;8007;51.404;6.304;2022-11-20T01:32:58;21.40;;;12.27;;
15812;SDS011;8007;51.404;6.304;2022-11-20T01:35:00;24.20;;;12.97;;
15812;SDS011;8007;51.404;6.304;2022-11-20T01:37:02;21.07;;;12.43;;
15812;SDS011;8007;51.404;6.304;2022-11-20T01:39:05;23.07;;;12.13;;
15812;SDS011;8007;51.404;6.304;2022-11-20T01:41:09;21.33;;;12.30;;
15812;SDS011;8007;51.404;6.304;2022-11-20T01:43:31;22.00;;;12.37;;
15812;SDS011;8007;51.404;6.304;2022-11-20T01:45:49;21.90;;;12.43;;
15812;SDS011;8007;51.404;6.304;2022-11-20T01:47:54;19.13;;;11.80;;
15812;SDS011;8007;51.404;6.304;2022-11-20T01:49:57;23.10;;;12.33;;
15812;SDS011;8007;51.404;6.304;2022-11-20T01:52:00;21.60;;;12.73;;
15812;SDS011;8007;51.404;6.304;2022-11-20T01:54:03;18.47;;;12.07;;
15812;SDS011;8007;51.404;6.304;2022-11-20T01:56:08;22.07;;;12.17;;
15812;SDS011;8007;51.404;6.304;2022-11-20T01:58:12;20.97;;;12.47;;
15812;SDS011;8007;51.404;6.304;2022-11-20T02:00:16;26.50;;;12.87;;
15812;SDS011;8007;51.404;6.304;2022-11-20T02:02:19;21.13;;;12.17;;
15812;SDS011;8007;51.404;6.304;2022-11-20T02:04:21;22.17;;;12.70;;
15812;SDS011;8007;51.404;6.304;2022-11-20T02:06:25;21.03;;;12.67;;
15812;SDS011;8007;51.404;6.304;2022-11-20T02:08:27;24.40;;;12.47;;
15812;SDS011;8007;51.404;6.304;2022-11-20T02:10:30;23.87;;;12.47;;
15812;SDS011;8007;51.404;6.304;2022-11-20T02:12:33;24.33;;;13.60;;
15812;SDS011;8007;51.404;6.304;2022-11-20T02:15:01;18.60;;;11.60;;
15812;SDS011;8007;51.404;6.304;2022-11-20T02:17:04;22.13;;;12.40;;
15812;SDS011;8007;51.404;6.304;2022-11-20T02:19:07;23.67;;;13.07;;
15812;SDS011;8007;51.404;6.304;2022-11-20T02:21:25;23.30;;;13.73;;
15812;SDS011;8007;51.404;6.304;2022-11-20T02:23:30;22.47;;;12.80;;
15812;SDS011;8007;51.404;6.304;2022-11-20T02:25:35;25.03;;;13.77;;
15812;SDS011;8007;51.404;6.304;2022-11-20T02:27:44;21.87;;;12.60;;
15812;SDS011;8007;51.404;6.304;2022-11-20T02:29:48;22.60;;;12.90;;
15812;SDS011;8007;51.404;6.304;2022-11-20T02:31:52;24.67;;;13.37;;
15812;SDS011;8007;51.404;6.304;2022-11-20T02:33:55;25.47;;;13.10;;
15812;SDS011;8007;51.404;6.304;2022-11-20T02:35:58;24.53;;;13.93;;
15812;SDS011;8007;51.404;6.304;2022-11-20T02:38:01;24.97;;;13.10;;
15812;SDS011;8007;51.404;6.304;2022-11-20T02:40:04;22.77;;;12.77;;
15812;SDS011;8007;51.404;6.304;2022-11-20T02:42:08;22.57;;;12.90;;
15812;SDS011;8007;51.404;6.304;2022-11-20T02:44:10;24.77;;;13.13;;
15812;SDS011;8007;51.404;6.304;2022-11-20T02:46:13;21.37;;;11.90;;
15812;SDS011;8007;51.404;6.304;2022-11-20T02:48:15;21.33;;;12.37;;
15812;SDS011;8007;51.404;6.304;2022-11-20T02:50:17;21.53;;;12.83;;
15812;SDS011;8007;51.404;6.304;2022-11-20T02:52:19;22.70;;;11.80;;
15812;SDS011;8007;51.404;6.304;2022-11-20T02:54:22;22.87;;;12.20;;
15812;SDS011;8007;51.404;6.304;2022-11-20T02:56:24;20.03;;;12.57;;
15812;SDS011;8007;51.404;6.304;2022-11-20T02:58:27;21.90;;;12.33;;
15812;SDS011;8007;51.404;6.304;2022-11-20T03:00:30;23.60;;;11.83;;
15812;SDS011;8007;51.404;6.304;2022-11-20T03:02:34;21.73;;;12.07;;
15812;SDS011;8007;51.404;6.304;2022-11-20T03:04:37;22.93;;;12.73;;
15812;SDS011;8007;51.404;6.304;2022-11-20T03:06:39;23.50;;;12.40;;
15812;SDS011;8007;51.404;6.304;2022-11-20T03:08:42;22.87;;;13.10;;
15812;SDS011;8007;51.404;6.304;2022-11-20T03:10:44;23.00;;;12.60;;
15812;SDS011;8007;51.404;6.304;2022-11-20T03:12:46;25.37;;;13.03;;
15812;SDS011;8007;51.404;6.304;2022-11-20T03:14:50;22.40;;;13.23;;
15812;SDS011;8007;51.404;6.304;2022-11-20T03:16:52;23.30;;;12.43;;
15812;SDS011;8007;51.404;6.304;2022-11-20T03:18:54;23.03;;;12.90;;
15812;SDS011;8007;51.404;6.304;2022-11-20T03:20:57;27.47;;;14.07;;
15812;SDS011;8007;51.404;6.304;2022-11-20T03:22:59;24.00;;;12.90;;
15812;SDS011;8007;51.404;6.304;2022-11-20T03:25:02;23.80;;;13.83;;
15812;SDS011;8007;51.404;6.304;2022-11-20T03:27:04;23.27;;;13.73;;
15812;SDS011;8007;51.404;6.304;2022-11-20T03:29:07;26.20;;;14.63;;
15812;SDS011;8007;51.404;6.304;2022-11-20T03:31:11;26.70;;;14.13;;
15812;SDS011;8007;51.404;6.304;2022-11-20T03:33:13;28.03;;;14.77;;
15812;SDS011;8007;51.404;6.304;2022-11-20T03:35:15;26.27;;;14.37;;
15812;SDS011;8007;51.404;6.304;2022-11-20T03:37:18;28.80;;;15.53;;
15812;SDS011;8007;51.404;6.304;2022-11-20T03:39:20;27.27;;;14.77;;
15812;SDS011;8007;51.404;6.304;2022-11-20T03:41:22;27.20;;;14.60;;
15812;SDS011;8007;51.404;6.304;2022-11-20T03:43:25;26.53;;;14.67;;
15812;SDS011;8007;51.404;6.304;2022-11-20T03:45:36;29.50;;;15.43;;
15812;SDS011;8007;51.404;6.304;2022-11-20T03:47:40;27.00;;;14.90;;
15812;SDS011;8007;51.404;6.304;2022-11-20T03:49:42;29.90;;;15.63;;
15812;SDS011;8007;51.404;6.304;2022-11-20T03:51:44;25.07;;;14.87;;
15812;SDS011;8007;51.404;6.304;2022-11-20T03:53:47;29.63;;;15.80;;
15812;SDS011;8007;51.404;6.304;2022-11-20T03:55:50;26.17;;;14.87;;
15812;SDS011;8007;51.404;6.304;2022-11-20T03:57:52;28.00;;;15.10;;
15812;SDS011;8007;51.404;6.304;2022-11-20T03:59:54;29.37;;;15.47;;
15812;SDS011;8007;51.404;6.304;2022-11-20T04:01:56;27.50;;;15.10;;
15812;SDS011;8007;51.404;6.304;2022-11-20T04:04:00;26.00;;;15.73;;
15812;SDS011;8007;51.404;6.304;2022-11-20T04:06:03;27.00;;;15.40;;
15812;SDS011;8007;51.404;6.304;2022-11-20T04:08:05;26.83;;;14.97;;
15812;SDS011;8007;51.404;6.304;2022-11-20T04:10:07;28.40;;;15.67;;
15812;SDS011;8007;51.404;6.304;2022-11-20T04:12:09;27.53;;;15.63;;
15812;SDS011;8007;51.404;6.304;2022-11-20T04:14:12;29.50;;;15.80;;
15812;SDS011;8007;51.404;6.304;2022-11-20T04:16:15;30.23;;;15.33;;
15812;SDS011;8007;51.404;6.304;2022-11-20T04:18:17;25.50;;;14.80;;
15812;SDS011;8007;51.404;6.304;2022-11-20T04:20:21;26.00;;;14.97;;
15812;SDS011;8007;51.404;6.304;2022-11-20T04:22:23;27.00;;;14.17;;
15812;SDS011;8007;51.404;6.304;2022-11-20T04:24:26;25.70;;;14.93;;
15812;SDS011;8007;51.404;6.304;2022-11-20T04:26:28;26.23;;;14.83;;
15812;SDS011;8007;51.404;6.304;2022-11-20T04:28:30;26.30;;;14.50;;
15812;SDS011;8007;51.404;6.304;2022-11-20T04:30:32;31.17;;;15.77;;
15812;SDS011;8007;51.404;6.304;2022-11-20T04:32:35;27.10;;;14.53;;
15812;SDS011;8007;51.404;6.304;2022-11-20T04:34:37;26.90;;;15.23;;
15812;SDS011;8007;51.404;6.304;2022-11-20T04:36:40;24.33;;;14.97;;
15812;SDS011;8007;51.404;6.304;2022-11-20T04:38:42;27.37;;;15.00;;
15812;SDS011;8007;51.404;6.304;2022-11-20T04:40:45;24.93;;;14.10;;
15812;SDS011;8007;51.404;6.304;2022-11-20T04:42:47;24.97;;;14.50;;
15812;SDS011;8007;51.404;6.304;2022-11-20T04:44:49;25.70;;;14.53;;
15812;SDS011;8007;51.404;6.304;2022-11-20T04:46:51;24.30;;;14.37;;
15812;SDS011;8007;51.404;6.304;2022-11-20T04:48:53;26.70;;;14.23;;
15812;SDS011;8007;51.404;6.304;2022-11-20T04:50:55;22.50;;;12.93;;
15812;SDS011;8007;51.404;6.304;2022-11-20T04:52:59;26.07;;;14.70;;
15812;SDS011;8007;51.404;6.304;2022-11-20T04:55:01;24.97;;;14.00;;
15812;SDS011;8007;51.404;6.304;2022-11-20T04:57:03;25.83;;;14.27;;
15812;SDS011;8007;51.404;6.304;2022-11-20T04:59:05;25.67;;;14.37;;
15812;SDS011;8007;51.404;6.304;2022-11-20T05:01:09;24.07;;;13.87;;
15812;SDS011;8007;51.404;6.304;2022-11-20T05:03:11;24.67;;;14.10;;
15812;SDS011;8007;51.404;6.304;2022-11-20T05:05:13;26.20;;;14.47;;
15812;SDS011;8007;51.404;6.304;2022-11-20T05:07:16;27.57;;;14.33;;
15812;SDS011;8007;51.404;6.304;2022-11-20T05:09:19;24.87;;;13.73;;
15812;SDS011;8007;51.404;6.304;2022-11-20T05:11:22;23.97;;;14.07;;
15812;SDS011;8007;51.404;6.304;2022-11-20T05:13:24;23.23;;;14.30;;
15812;SDS011;8007;51.404;6.304;2022-11-20T05:15:26;26.73;;;15.13;;
15812;SDS011;8007;51.404;6.304;2022-11-20T05:17:28;27.17;;;15.57;;
15812;SDS011;8007;51.404;6.304;2022-11-20T05:19:30;31.17;;;15.77;;
15812;SDS011;8007;51.404;6.304;2022-11-20T05:21:32;29.23;;;16.03;;
15812;SDS011;8007;51.404;6.304;2022-11-20T05:23:35;25.77;;;15.27;;
15812;SDS011;8007;51.404;6.304;2022-11-20T05:25:39;28.10;;;16.57;;
15812;SDS011;8007;51.404;6.304;2022-11-20T05:27:41;27.10;;;15.03;;
15812;SDS011;8007;51.404;6.304;2022-11-20T05:29:43;25.93;;;15.07;;
15812;SDS011;8007;51.404;6.304;2022-11-20T05:31:46;26.43;;;15.43;;
15812;SDS011;8007;51.404;6.304;2022-11-20T05:33:49;27.73;;;15.97;;
15812;SDS011;8007;51.404;6.304;2022-11-20T05:35:51;25.80;;;15.67;;
15812;SDS011;8007;51.404;6.304;2022-11-20T05:37:53;25.63;;;15.27;;
15812;SDS011;8007;51.404;6.304;2022-11-20T05:39:55;26.20;;;15.40;;
15812;SDS011;8007;51.404;6.304;2022-11-20T05:41:59;28.43;;;15.60;;
15812;SDS011;8007;51.404;6.304;2022-11-20T05:44:19;110.47;;;53.90;;
15812;SDS011;8007;51.404;6.304;2022-11-20T05:46:21;33.80;;;19.23;;
15812;SDS011;8007;51.404;6.304;2022-11-20T05:48:24;27.67;;;15.37;;
15812;SDS011;8007;51.404;6.304;2022-11-20T05:50:26;28.60;;;15.77;;
15812;SDS011;8007;51.404;6.304;2022-11-20T05:52:29;25.03;;;14.83;;
15812;SDS011;8007;51.404;6.304;2022-11-20T05:54:31;27.27;;;15.23;;
15812;SDS011;8007;51.404;6.304;2022-11-20T05:56:33;27.90;;;16.10;;
15812;SDS011;8007;51.404;6.304;2022-11-20T05:58:38;81.27;;;41.30;;
15812;SDS011;8007;51.404;6.304;2022-11-20T06:00:40;41.57;;;22.33;;
15812;SDS011;8007;51.404;6.304;2022-11-20T06:02:42;25.30;;;14.83;;
15812;SDS011;8007;51.404;6.304;2022-11-20T06:04:44;28.30;;;15.70;;
15812;SDS011;8007;51.404;6.304;2022-11-20T06:06:47;35.03;;;19.90;;
15812;SDS011;8007;51.404;6.304;2022-11-20T06:08:49;28.30;;;15.30;;
15812;SDS011;8007;51.404;6.304;2022-11-20T06:10:51;27.20;;;15.87;;
15812;SDS011;8007;51.404;6.304;2022-11-20T06:12:53;22.70;;;14.67;;
15812;SDS011;8007;51.404;6.304;2022-11-20T06:14:56;27.93;;;15.30;;
15812;SDS011;8007;51.404;6.304;2022-11-20T06:16:59;30.33;;;16.10;;
15812;SDS011;8007;51.404;6.304;2022-11-20T06:19:01;27.13;;;15.33;;
15812;SDS011;8007;51.404;6.304;2022-11-20T06:21:04;27.10;;;16.10;;
15812;SDS011;8007;51.404;6.304;2022-11-20T06:23:06;29.63;;;16.03;;
15812;SDS011;8007;51.404;6.304;2022-11-20T06:25:08;29.20;;;15.50;;
15812;SDS011;8007;51.404;6.304;2022-11-20T06:27:10;33.47;;;16.67;;
15812;SDS011;8007;51.404;6.304;2022-11-20T06:29:12;31.80;;;16.37;;
15812;SDS011;8007;51.404;6.304;2022-11-20T06:31:17;31.87;;;17.17;;
15812;SDS011;8007;51.404;6.304;2022-11-20T06:33:19;29.23;;;16.13;;
15812;SDS011;8007;51.404;6.304;2022-11-20T06:35:21;33.20;;;17.03;;
15812;SDS011;8007;51.404;6.304;2022-11-20T06:37:23;31.07;;;16.23;;
15812;SDS011;8007;51.404;6.304;2022-11-20T06:39:26;29.47;;;15.90;;
15812;SDS011;8007;51.404;6.304;2022-11-20T06:41:28;31.37;;;15.90;;
15812;SDS011;8007;51.404;6.304;2022-11-20T06:43:30;29.27;;;15.80;;
15812;SDS011;8007;51.404;6.304;2022-11-20T06:45:32;26.07;;;15.57;;
15812;SDS011;8007;51.404;6.304;2022-11-20T06:47:36;27.73;;;14.73;;
15812;SDS011;8007;51.404;6.304;2022-11-20T06:49:38;57.57;;;15.40;;
15812;SDS011;8007;51.404;6.304;2022-11-20T06:51:41;27.77;;;14.80;;
15812;SDS011;8007;51.404;6.304;2022-11-20T06:53:43;26.80;;;15.00;;
15812;SDS011;8007;51.404;6.304;2022-11-20T06:55:46;26.53;;;15.43;;
15812;SDS011;8007;51.404;6.304;2022-11-20T06:57:48;26.10;;;15.27;;
15812;SDS011;8007;51.404;6.304;2022-11-20T06:59:52;27.30;;;15.17;;
15812;SDS011;8007;51.404;6.304;2022-11-20T07:01:54;30.13;;;15.40;;
15812;SDS011;8007;51.404;6.304;2022-11-20T07:03:58;26.50;;;14.80;;
15812;SDS011;8007;51.404;6.304;2022-11-20T07:06:00;28.90;;;15.53;;
15812;SDS011;8007;51.404;6.304;2022-11-20T07:08:03;25.27;;;14.80;;
15812;SDS011;8007;51.404;6.304;2022-11-20T07:10:05;25.97;;;15.23;;
15812;SDS011;8007;51.404;6.304;2022-11-20T07:12:07;25.20;;;14.87;;
15812;SDS011;8007;51.404;6.304;2022-11-20T07:14:10;28.47;;;15.53;;
15812;SDS011;8007;51.404;6.304;2022-11-20T07:16:12;27.23;;;15.23;;
15812;SDS011;8007;51.404;6.304;2022-11-20T07:18:14;25.10;;;13.93;;
15812;SDS011;8007;51.404;6.304;2022-11-20T07:20:17;24.73;;;15.27;;
15812;SDS011;8007;51.404;6.304;2022-11-20T07:22:19;30.60;;;16.47;;
15812;SDS011;8007;51.404;6.304;2022-11-20T07:24:22;32.07;;;17.60;;
15812;SDS011;8007;51.404;6.304;2022-11-20T07:26:24;27.93;;;15.70;;
15812;SDS011;8007;51.404;6.304;2022-11-20T07:28:26;25.77;;;15.03;;
15812;SDS011;8007;51.404;6.304;2022-11-20T07:30:29;27.03;;;15.10;;
15812;SDS011;8007;51.404;6.304;2022-11-20T07:32:31;26.80;;;15.50;;
15812;SDS011;8007;51.404;6.304;2022-11-20T07:34:33;26.93;;;16.10;;
15812;SDS011;8007;51.404;6.304;2022-11-20T07:36:36;30.23;;;16.73;;
15812;SDS011;8007;51.404;6.304;2022-11-20T07:38:38;29.87;;;16.63;;
15812;SDS011;8007;51.404;6.304;2022-11-20T07:40:41;25.37;;;15.57;;
15812;SDS011;8007;51.404;6.304;2022-11-20T07:42:46;30.47;;;15.70;;
15812;SDS011;8007;51.404;6.304;2022-11-20T07:44:49;31.73;;;16.73;;
15812;SDS011;8007;51.404;6.304;2022-11-20T07:46:51;30.30;;;16.30;;
15812;SDS011;8007;51.404;6.304;2022-11-20T07:48:53;29.07;;;17.17;;
15812;SDS011;8007;51.404;6.304;2022-11-20T07:50:56;27.43;;;15.77;;
15812;SDS011;8007;51.404;6.304;2022-11-20T07:53:03;29.43;;;15.90;;
15812;SDS011;8007;51.404;6.304;2022-11-20T07:55:06;30.07;;;16.77;;
15812;SDS011;8007;51.404;6.304;2022-11-20T07:57:08;30.43;;;17.10;;
15812;SDS011;8007;51.404;6.304;2022-11-20T07:59:10;30.20;;;17.67;;
15812;SDS011;8007;51.404;6.304;2022-11-20T08:01:12;31.70;;;16.60;;
15812;SDS011;8007;51.404;6.304;2022-11-20T08:03:15;29.13;;;17.23;;
15812;SDS011;8007;51.404;6.304;2022-11-20T08:05:17;33.77;;;18.47;;
15812;SDS011;8007;51.404;6.304;2022-11-20T08:07:19;31.00;;;17.67;;
15812;SDS011;8007;51.404;6.304;2022-11-20T08:09:22;34.37;;;16.93;;
15812;SDS011;8007;51.404;6.304;2022-11-20T08:11:25;30.73;;;17.23;;
15812;SDS011;8007;51.404;6.304;2022-11-20T08:13:47;28.73;;;17.00;;
15812;SDS011;8007;51.404;6.304;2022-11-20T08:16:07;31.50;;;17.00;;
15812;SDS011;8007;51.404;6.304;2022-11-20T08:18:09;30.80;;;17.27;;
15812;SDS011;8007;51.404;6.304;2022-11-20T08:20:12;43.00;;;25.17;;
15812;SDS011;8007;51.404;6.304;2022-11-20T08:22:14;36.50;;;19.53;;
15812;SDS011;8007;51.404;6.304;2022-11-20T08:24:17;33.57;;;18.23;;
15812;SDS011;8007;51.404;6.304;2022-11-20T08:26:21;40.17;;;22.43;;
15812;SDS011;8007;51.404;6.304;2022-11-20T08:28:24;32.70;;;18.30;;
15812;SDS011;8007;51.404;6.304;2022-11-20T08:30:26;33.50;;;18.90;;
15812;SDS011;8007;51.404;6.304;2022-11-20T08:32:28;64.83;;;27.87;;
15812;SDS011;8007;51.404;6.304;2022-11-20T08:34:31;54.73;;;25.20;;
15812;SDS011;8007;51.404;6.304;2022-11-20T08:36:33;40.93;;;19.37;;
15812;SDS011;8007;51.404;6.304;2022-11-20T08:38:35;33.57;;;19.00;;
15812;SDS011;8007;51.404;6.304;2022-11-20T08:40:37;32.00;;;17.03;;
15812;SDS011;8007;51.404;6.304;2022-11-20T08:42:46;31.40;;;18.00;;
15812;SDS011;8007;51.404;6.304;2022-11-20T08:44:48;30.83;;;17.73;;
15812;SDS011;8007;51.404;6.304;2022-11-20T08:46:51;31.33;;;18.77;;
15812;SDS011;8007;51.404;6.304;2022-11-20T08:48:53;31.93;;;18.07;;
15812;SDS011;8007;51.404;6.304;2022-11-20T08:50:57;30.40;;;17.43;;
15812;SDS011;8007;51.404;6.304;2022-11-20T08:53:02;28.37;;;16.60;;
15812;SDS011;8007;51.404;6.304;2022-11-20T08:55:04;29.10;;;17.90;;
15812;SDS011;8007;51.404;6.304;2022-11-20T08:57:07;32.93;;;18.47;;
15812;SDS011;8007;51.404;6.304;2022-11-20T08:59:10;33.83;;;18.00;;
15812;SDS011;8007;51.404;6.304;2022-11-20T09:01:13;29.23;;;17.10;;
15812;SDS011;8007;51.404;6.304;2022-11-20T09:03:15;30.87;;;17.10;;
15812;SDS011;8007;51.404;6.304;2022-11-20T09:05:17;31.67;;;17.00;;
15812;SDS011;8007;51.404;6.304;2022-11-20T09:07:19;28.40;;;16.90;;
15812;SDS011;8007;51.404;6.304;2022-11-20T09:09:22;32.47;;;16.60;;
15812;SDS011;8007;51.404;6.304;2022-11-20T09:11:24;32.53;;;18.33;;
15812;SDS011;8007;51.404;6.304;2022-11-20T09:13:27;31.87;;;18.67;;
15812;SDS011;8007;51.404;6.304;2022-11-20T09:15:31;32.63;;;18.20;;
15812;SDS011;8007;51.404;6.304;2022-11-20T09:17:33;28.87;;;17.93;;
15812;SDS011;8007;51.404;6.304;2022-11-20T09:19:35;29.53;;;17.17;;
15812;SDS011;8007;51.404;6.304;2022-11-20T09:21:37;29.47;;;17.40;;
15812;SDS011;8007;51.404;6.304;2022-11-20T09:23:40;34.60;;;19.07;;
15812;SDS011;8007;51.404;6.304;2022-11-20T09:25:42;35.93;;;18.97;;
15812;SDS011;8007;51.404;6.304;2022-11-20T09:27:44;29.47;;;16.63;;
15812;SDS011;8007;51.404;6.304;2022-11-20T09:29:47;28.47;;;17.60;;
15812;SDS011;8007;51.404;6.304;2022-11-20T09:31:50;29.27;;;16.87;;
15812;SDS011;8007;51.404;6.304;2022-11-20T09:33:52;27.63;;;15.47;;
15812;SDS011;8007;51.404;6.304;2022-11-20T09:35:54;26.30;;;14.97;;
15812;SDS011;8007;51.404;6.304;2022-11-20T09:37:56;28.13;;;15.60;;
15812;SDS011;8007;51.404;6.304;2022-11-20T09:39:58;28.20;;;16.07;;
15812;SDS011;8007;51.404;6.304;2022-11-20T09:42:10;26.03;;;15.67;;
15812;SDS011;8007;51.404;6.304;2022-11-20T09:44:19;26.97;;;15.43;;
15812;SDS011;8007;51.404;6.304;2022-11-20T09:46:28;29.33;;;16.30;;
15812;SDS011;8007;51.404;6.304;2022-11-20T09:51:00;28.73;;;16.17;;
15812;SDS011;8007;51.404;6.304;2022-11-20T09:53:13;30.93;;;16.33;;
15812;SDS011;8007;51.404;6.304;2022-11-20T09:55:17;31.23;;;16.83;;
15812;SDS011;8007;51.404;6.304;2022-11-20T09:57:20;34.90;;;17.07;;
15812;SDS011;8007;51.404;6.304;2022-11-20T09:59:29;30.30;;;16.27;;
15812;SDS011;8007;51.404;6.304;2022-11-20T10:01:35;34.80;;;16.83;;
15812;SDS011;8007;51.404;6.304;2022-11-20T10:03:40;35.23;;;17.60;;
15812;SDS011;8007;51.404;6.304;2022-11-20T10:05:45;33.23;;;17.33;;
15812;SDS011;8007;51.404;6.304;2022-11-20T10:07:51;35.77;;;18.90;;
15812;SDS011;8007;51.404;6.304;2022-11-20T10:09:56;37.23;;;18.17;;
15812;SDS011;8007;51.404;6.304;2022-11-20T10:12:02;38.93;;;17.97;;
15812;SDS011;8007;51.404;6.304;2022-11-20T10:14:10;37.13;;;18.23;;
15812;SDS011;8007;51.404;6.304;2022-11-20T10:16:18;35.03;;;17.67;;
15812;SDS011;8007;51.404;6.304;2022-11-20T10:18:28;40.37;;;18.27;;
15812;SDS011;8007;51.404;6.304;2022-11-20T10:20:37;44.20;;;19.53;;
15812;SDS011;8007;51.404;6.304;2022-11-20T10:22:47;48.90;;;19.90;;
15812;SDS011;8007;51.404;6.304;2022-11-20T10:24:56;54.83;;;20.73;;
15812;SDS011;8007;51.404;6.304;2022-11-20T10:27:00;58.07;;;21.33;;
15812;SDS011;8007;51.404;6.304;2022-11-20T10:29:09;64.00;;;22.17;;
15812;SDS011;8007;51.404;6.304;2022-11-20T10:31:13;73.63;;;23.20;;
15812;SDS011;8007;51.404;6.304;2022-11-20T10:33:17;70.53;;;23.63;;
15812;SDS011;8007;51.404;6.304;2022-11-20T10:35:20;72.67;;;24.60;;
15812;SDS011;8007;51.404;6.304;2022-11-20T10:37:24;74.90;;;25.40;;
15812;SDS011;8007;51.404;6.304;2022-11-20T10:39:29;70.57;;;24.83;;
15812;SDS011;8007;51.404;6.304;2022-11-20T10:41:36;68.90;;;23.87;;
15812;SDS011;8007;51.404;6.304;2022-11-20T10:43:40;73.57;;;24.67;;
15812;SDS011;8007;51.404;6.304;2022-11-20T10:45:47;86.37;;;26.63;;
15812;SDS011;8007;51.404;6.304;2022-11-20T10:47:51;88.37;;;27.93;;
15812;SDS011;8007;51.404;6.304;2022-11-20T10:49:56;99.90;;;29.03;;
15812;SDS011;8007;51.404;6.304;2022-11-20T10:52:02;87.87;;;28.43;;
15812;SDS011;8007;51.404;6.304;2022-11-20T10:54:10;83.23;;;26.50;;
15812;SDS011;8007;51.404;6.304;2022-11-20T10:56:16;96.83;;;27.03;;
15812;SDS011;8007;51.404;6.304;2022-11-20T10:58:22;88.53;;;26.73;;
15812;SDS011;8007;51.404;6.304;2022-11-20T11:00:30;87.53;;;26.13;;
15812;SDS011;8007;51.404;6.304;2022-11-20T11:02:34;89.00;;;26.53;;
15812;SDS011;8007;51.404;6.304;2022-11-20T11:04:37;82.73;;;25.70;;
15812;SDS011;8007;51.404;6.304;2022-11-20T11:06:40;99.30;;;27.73;;
15812;SDS011;8007;51.404;6.304;2022-11-20T11:08:44;92.40;;;28.30;;
15812;SDS011;8007;51.404;6.304;2022-11-20T11:10:50;90.13;;;27.30;;
15812;SDS011;8007;51.404;6.304;2022-11-20T11:12:53;76.63;;;25.03;;
15812;SDS011;8007;51.404;6.304;2022-11-20T11:14:57;78.73;;;27.60;;
15812;SDS011;8007;51.404;6.304;2022-11-20T11:16:59;77.50;;;25.90;;
15812;SDS011;8007;51.404;6.304;2022-11-20T11:19:05;79.50;;;25.97;;
15812;SDS011;8007;51.404;6.304;2022-11-20T11:21:08;65.57;;;22.83;;
15812;SDS011;8007;51.404;6.304;2022-11-20T11:23:22;67.10;;;23.40;;
15812;SDS011;8007;51.404;6.304;2022-11-20T11:25:26;68.93;;;23.10;;
15812;SDS011;8007;51.404;6.304;2022-11-20T11:27:28;71.50;;;23.67;;
15812;SDS011;8007;51.404;6.304;2022-11-20T11:29:31;69.57;;;23.77;;
15812;SDS011;8007;51.404;6.304;2022-11-20T11:31:34;67.80;;;23.77;;
15812;SDS011;8007;51.404;6.304;2022-11-20T11:33:37;65.93;;;24.60;;
15812;SDS011;8007;51.404;6.304;2022-11-20T11:35:44;62.90;;;24.17;;
15812;SDS011;8007;51.404;6.304;2022-11-20T11:37:46;61.13;;;22.50;;
15812;SDS011;8007;51.404;6.304;2022-11-20T11:39:48;59.63;;;23.17;;
15812;SDS011;8007;51.404;6.304;2022-11-20T11:41:51;58.90;;;21.77;;
15812;SDS011;8007;51.404;6.304;2022-11-20T11:43:53;54.70;;;20.90;;
15812;SDS011;8007;51.404;6.304;2022-11-20T11:46:30;56.83;;;21.83;;
15812;SDS011;8007;51.404;6.304;2022-11-20T11:48:34;58.57;;;23.20;;
15812;SDS011;8007;51.404;6.304;2022-11-20T11:50:36;56.10;;;21.50;;
15812;SDS011;8007;51.404;6.304;2022-11-20T11:52:41;58.13;;;22.37;;
15812;SDS011;8007;51.404;6.304;2022-11-20T11:54:45;56.50;;;21.40;;
15812;SDS011;8007;51.404;6.304;2022-11-20T11:56:49;62.13;;;22.33;;
15812;SDS011;8007;51.404;6.304;2022-11-20T11:58:52;55.60;;;23.40;;
15812;SDS011;8007;51.404;6.304;2022-11-20T12:00:58;55.03;;;21.53;;
15812;SDS011;8007;51.404;6.304;2022-11-20T12:03:04;52.37;;;20.60;;
15812;SDS011;8007;51.404;6.304;2022-11-20T12:05:11;58.23;;;23.23;;
15812;SDS011;8007;51.404;6.304;2022-11-20T12:07:19;61.23;;;22.43;;
15812;SDS011;8007;51.404;6.304;2022-11-20T12:09:23;55.60;;;25.37;;
15812;SDS011;8007;51.404;6.304;2022-11-20T12:11:29;50.43;;;21.30;;
15812;SDS011;8007;51.404;6.304;2022-11-20T12:13:44;50.37;;;22.03;;
15812;SDS011;8007;51.404;6.304;2022-11-20T12:15:47;53.57;;;23.83;;